Time;durP1;ratioP1;P1;durP2;ratioP2;P2;SDS_P1;SDS_P2;PMS_P1;PMS_P2;Temp;Humidity;BMP_temperature;BMP_pressure;BME280_temperature;BME280_humidity;BME280_pressure;Samples;Min_cycle;Max_cycle;Signal;HPM_P1;HPM_P2
2023/12/24 00:00:27;;;;;;;2.67;1.92;;;;;;;2.25;100.00;98980.72;6292411;28;20102;-72
2023/12/24 00:03:28;;;;;;;4.32;2.20;;;;;;;2.30;100.00;98976.19;6292365;28;20063;-71
2023/12/24 00:06:29;;;;;;;4.40;2.13;;;;;;;2.40;100.00;98972.31;6303839;28;20051;-72
2023/12/24 00:09:30;;;;;;;2.55;2.25;;;;;;;2.39;100.00;98986.94;6298749;28;20409;-76
2023/12/24 00:12:31;;;;;;;2.08;1.45;;;;;;;2.24;100.00;98992.75;6294208;28;20055;-76
2023/12/24 00:15:37;;;;;;;5.20;2.90;;;;;;;2.32;100.00;98979.53;6293966;28;20044;-76
2023/12/24 00:18:38;;;;;;;1.98;1.65;;;;;;;2.16;100.00;98990.53;6333662;28;20087;-76
2023/12/24 00:21:39;;;;;;;2.42;2.00;;;;;;;2.48;100.00;99000.31;6292934;28;20063;-76
2023/12/24 00:24:41;;;;;;;3.13;2.70;;;;;;;2.38;100.00;98995.53;6293935;28;20049;-73
2023/12/24 00:27:42;;;;;;;6.00;2.42;;;;;;;2.33;100.00;99019.84;6295790;28;20052;-72
2023/12/24 00:30:48;;;;;;;4.38;2.40;;;;;;;2.25;100.00;99015.03;6320150;28;20189;-72
2023/12/24 00:33:52;;;;;;;3.10;2.03;;;;;;;2.17;100.00;99010.19;6307872;28;20114;-72
2023/12/24 00:36:52;;;;;;;3.47;2.45;;;;;;;2.16;100.00;99012.81;6304956;28;20052;-72
2023/12/24 00:39:54;;;;;;;3.47;2.53;;;;;;;2.21;100.00;99016.88;6336206;27;20040;-76
2023/12/24 00:42:54;;;;;;;3.90;2.80;;;;;;;2.29;100.00;99020.88;6329994;27;20050;-76
2023/12/24 00:45:55;;;;;;;4.97;2.33;;;;;;;2.46;100.00;99022.72;6299411;28;20052;-76
2023/12/24 00:48:59;;;;;;;4.18;2.47;;;;;;;2.44;100.00;99034.81;6298822;28;20392;-76
2023/12/24 00:52:00;;;;;;;4.28;2.53;;;;;;;2.45;100.00;99033.91;6315443;28;20048;-76
2023/12/24 00:55:04;;;;;;;4.78;2.72;;;;;;;2.51;100.00;99043.94;6298630;28;20136;-76
2023/12/24 00:58:05;;;;;;;6.07;2.63;;;;;;;2.33;100.00;99048.16;6296926;28;20060;-76
2023/12/24 01:01:06;;;;;;;4.03;2.92;;;;;;;2.36;100.00;99054.00;6310216;28;20123;-76
2023/12/24 01:04:06;;;;;;;3.70;2.40;;;;;;;2.37;100.00;99054.84;6323816;28;20056;-72
2023/12/24 01:07:07;;;;;;;4.53;2.85;;;;;;;2.39;100.00;99056.44;6304383;28;20056;-72
2023/12/24 01:10:08;;;;;;;3.83;2.80;;;;;;;2.33;100.00;99054.13;6297061;28;20076;-73
2023/12/24 01:13:12;;;;;;;4.10;2.65;;;;;;;2.32;100.00;99060.16;6330227;27;20050;-72
2023/12/24 01:16:13;;;;;;;5.35;2.83;;;;;;;2.32;100.00;99065.31;6296044;28;20571;-72
2023/12/24 01:19:14;;;;;;;4.07;2.20;;;;;;;2.35;100.00;99057.47;6298805;28;20048;-72
2023/12/24 01:22:15;;;;;;;4.40;3.22;;;;;;;2.45;100.00;99062.22;6338632;27;20139;-72
2023/12/24 01:25:18;;;;;;;5.25;3.05;;;;;;;2.38;100.00;99067.63;6296327;28;20101;-72
2023/12/24 01:28:18;;;;;;;9.27;3.50;;;;;;;2.37;100.00;99070.28;6302175;28;20052;-76
2023/12/24 01:31:22;;;;;;;5.25;3.70;;;;;;;2.37;100.00;99081.41;6329670;27;20699;-76
2023/12/24 01:34:23;;;;;;;4.45;3.08;;;;;;;2.38;100.00;99083.06;6301524;28;20044;-73
2023/12/24 01:37:24;;;;;;;6.00;2.92;;;;;;;2.35;100.00;99088.38;6338398;27;20052;-72
2023/12/24 01:40:25;;;;;;;3.53;2.42;;;;;;;2.41;100.00;99076.97;6295335;28;20059;-76
2023/12/24 01:43:26;;;;;;;6.03;3.85;;;;;;;2.44;100.00;99060.56;6307727;28;20041;-75
2023/12/24 01:46:28;;;;;;;6.43;3.60;;;;;;;2.17;100.00;99069.41;6327128;27;20102;-73
2023/12/24 01:49:29;;;;;;;4.53;3.40;;;;;;;2.27;100.00;99099.91;6296913;28;20044;-73
2023/12/24 01:52:30;;;;;;;2.50;2.13;;;;;;;2.13;100.00;99108.19;6311934;28;20093;-72
2023/12/24 01:55:31;;;;;;;6.30;3.55;;;;;;;2.24;100.00;99089.72;6312742;28;20056;-71
2023/12/24 01:58:34;;;;;;;6.82;3.20;;;;;;;2.30;100.00;99097.19;6294444;28;20056;-76
2023/12/24 02:01:36;;;;;;;4.28;3.05;;;;;;;2.34;100.00;99107.28;6295174;28;20072;-76
2023/12/24 02:04:37;;;;;;;4.20;3.30;;;;;;;2.47;100.00;99122.22;6325225;28;20056;-76
2023/12/24 02:07:40;;;;;;;4.53;3.10;;;;;;;2.37;100.00;99116.63;6331544;28;20094;-72
2023/12/24 02:10:41;;;;;;;6.35;3.10;;;;;;;2.35;100.00;99118.44;6316057;28;20419;-76
2023/12/24 02:13:44;;;;;;;4.03;2.50;;;;;;;2.26;100.00;99119.63;6303960;28;20052;-76
2023/12/24 02:16:46;;;;;;;;;;;;;;;2.28;100.00;99125.56;6316745;28;20134;-71
2023/12/24 02:19:50;;;;;;;6.57;2.93;;;;;;;2.30;100.00;99110.88;6315037;28;19924;-72
2023/12/24 02:22:51;;;;;;;2.95;1.63;;;;;;;2.37;100.00;99114.91;6314454;28;20448;-72
2023/12/24 02:25:59;;;;;;;2.00;1.80;;;;;;;2.06;100.00;99119.63;6295701;28;20040;-72
2023/12/24 02:29:10;;;;;;;3.33;2.40;;;;;;;2.20;100.00;99120.75;6308265;28;20133;-72
2023/12/24 02:32:14;;;;;;;3.85;2.15;;;;;;;2.13;100.00;99115.91;6307296;28;20060;-72
2023/12/24 02:35:16;;;;;;;4.40;2.53;;;;;;;2.05;100.00;99120.53;6310247;28;20074;-72
2023/12/24 02:38:17;;;;;;;1.58;1.27;;;;;;;1.96;100.00;99138.03;6302131;28;20053;-72
2023/12/24 02:41:18;;;;;;;1.92;1.38;;;;;;;2.19;100.00;99131.94;6315087;28;20195;-73
2023/12/24 02:44:19;;;;;;;2.30;1.35;;;;;;;2.08;100.00;99146.13;6314927;28;20404;-73
2023/12/24 02:47:20;;;;;;;2.33;1.70;;;;;;;2.20;100.00;99158.50;6317358;28;20498;-76
2023/12/24 02:50:21;;;;;;;2.88;1.30;;;;;;;2.16;100.00;99177.53;6314311;28;20094;-76
2023/12/24 02:53:21;;;;;;;1.75;1.58;;;;;;;2.24;100.00;99165.19;6316502;28;20052;-76
2023/12/24 02:56:22;;;;;;;1.67;1.30;;;;;;;2.22;100.00;99187.59;6315967;28;20044;-76
2023/12/24 02:59:28;;;;;;;1.50;1.13;;;;;;;2.36;100.00;99158.72;6320445;28;20052;-77
2023/12/24 03:02:28;;;;;;;1.55;1.30;;;;;;;2.20;100.00;99172.22;6310099;28;20042;-76
2023/12/24 03:05:29;;;;;;;1.77;1.33;;;;;;;2.27;100.00;99183.09;6312179;28;20499;-73
2023/12/24 03:08:30;;;;;;;1.58;1.42;;;;;;;2.24;100.00;99185.78;6315062;28;20460;-73
2023/12/24 03:11:31;;;;;;;1.58;1.40;;;;;;;2.44;100.00;99181.56;6316123;28;20507;-73
2023/12/24 03:14:35;;;;;;;1.52;1.23;;;;;;;2.31;100.00;99176.94;6313492;28;20052;-73
2023/12/24 03:17:38;;;;;;;2.47;1.67;;;;;;;2.49;100.00;99171.91;6313979;28;20357;-73
2023/12/24 03:20:41;;;;;;;2.95;1.88;;;;;;;2.58;100.00;99181.84;6314801;28;20405;-74
2023/12/24 03:23:42;;;;;;;1.75;1.42;;;;;;;2.41;100.00;99192.84;6299182;28;20047;-74
2023/12/24 03:26:42;;;;;;;3.70;1.77;;;;;;;2.27;100.00;99183.09;6298498;28;20102;-73
2023/12/24 03:29:46;;;;;;;3.08;2.10;;;;;;;2.57;100.00;99185.31;6313111;28;20048;-74
2023/12/24 03:32:47;;;;;;;3.30;2.50;;;;;;;2.50;100.00;99192.44;6294072;28;20059;-73
2023/12/24 03:35:48;;;;;;;2.35;1.90;;;;;;;2.54;100.00;99181.13;6299891;28;20136;-73
2023/12/24 03:38:49;;;;;;;2.92;2.22;;;;;;;2.29;100.00;99211.38;6303397;28;20087;-73
2023/12/24 03:41:50;;;;;;;3.95;2.30;;;;;;;2.38;100.00;99198.94;6297913;28;20127;-73
2023/12/24 03:44:51;;;;;;;3.67;2.30;;;;;;;2.47;100.00;99202.91;6301907;28;20136;-74
2023/12/24 03:47:51;;;;;;;3.83;2.38;;;;;;;2.40;100.00;99222.88;6311781;28;20412;-74
2023/12/24 03:50:52;;;;;;;3.42;2.45;;;;;;;2.62;100.00;99199.66;6294043;28;20472;-73
2023/12/24 03:53:58;;;;;;;3.58;2.30;;;;;;;2.61;100.00;99230.63;6295477;28;20052;-73
2023/12/24 03:56:59;;;;;;;3.22;2.15;;;;;;;2.62;100.00;99216.88;6314359;28;20471;-73
2023/12/24 04:00:00;;;;;;;5.47;2.58;;;;;;;2.60;100.00;99219.50;6301577;28;20044;-74
2023/12/24 04:03:01;;;;;;;6.13;2.63;;;;;;;2.59;100.00;99216.97;6315989;28;20101;-74
2023/12/24 04:06:09;;;;;;;3.28;2.22;;;;;;;2.66;100.00;99231.28;6308130;28;20071;-74
2023/12/24 04:09:10;;;;;;;3.78;2.33;;;;;;;2.71;100.00;99231.91;6314295;28;20400;-77
2023/12/24 04:12:11;;;;;;;6.93;2.72;;;;;;;2.63;100.00;99229.66;6309164;28;20052;-77
2023/12/24 04:15:14;;;;;;;3.28;2.53;;;;;;;2.66;100.00;99238.16;6305048;28;20052;-76
2023/12/24 04:18:15;;;;;;;3.25;2.28;;;;;;;2.84;100.00;99224.50;6315166;28;21724;-77
2023/12/24 04:21:16;;;;;;;3.60;2.22;;;;;;;2.77;100.00;99220.53;6305019;28;20503;-74
2023/12/24 04:24:17;;;;;;;2.67;2.00;;;;;;;2.63;100.00;99203.91;6311618;28;20144;-74
2023/12/24 04:27:18;;;;;;;4.95;2.22;;;;;;;2.74;100.00;99212.91;6303070;28;20052;-74
2023/12/24 04:30:18;;;;;;;3.10;2.17;;;;;;;2.58;100.00;99210.16;6305794;28;20109;-74
2023/12/24 04:33:19;;;;;;;3.50;2.55;;;;;;;2.46;100.00;99226.13;6314928;28;20048;-74
2023/12/24 04:36:20;;;;;;;4.18;2.67;;;;;;;2.48;100.00;99225.16;6313755;28;20063;-74
2023/12/24 04:39:21;;;;;;;5.82;2.78;;;;;;;2.72;100.00;99231.03;6321618;28;20047;-74
2023/12/24 04:42:23;;;;;;;3.63;2.53;;;;;;;2.66;100.00;99227.84;6319865;28;20044;-75
2023/12/24 04:45:24;;;;;;;2.27;1.87;;;;;;;2.64;100.00;99225.38;6322800;28;20396;-74
2023/12/24 04:48:25;;;;;;;2.83;2.03;;;;;;;2.72;100.00;99232.75;6310999;28;20131;-74
2023/12/24 04:51:26;;;;;;;2.75;1.60;;;;;;;2.67;100.00;99219.25;6305862;28;20051;-74
2023/12/24 04:54:27;;;;;;;2.47;1.75;;;;;;;2.70;100.00;99231.97;6301092;28;20052;-74
2023/12/24 04:57:28;;;;;;;2.03;1.63;;;;;;;2.72;100.00;99240.47;6300189;28;20060;-74
2023/12/24 05:00:32;;;;;;;2.88;1.90;;;;;;;2.77;100.00;99234.25;6313527;28;20504;-74
2023/12/24 05:03:35;;;;;;;2.40;1.50;;;;;;;2.70;100.00;99227.69;6310472;28;20063;-74
2023/12/24 05:06:36;;;;;;;1.73;1.25;;;;;;;2.68;100.00;99219.19;6298669;28;20127;-74
2023/12/24 05:09:43;;;;;;;2.13;1.08;;;;;;;2.72;100.00;99248.22;6299425;28;20040;-74
2023/12/24 05:12:44;;;;;;;3.08;1.65;;;;;;;2.81;100.00;99225.47;6297407;28;20049;-74
2023/12/24 05:15:45;;;;;;;1.27;1.17;;;;;;;2.89;100.00;99227.75;6296085;28;20660;-74
2023/12/24 05:18:48;;;;;;;1.25;0.90;;;;;;;2.94;100.00;99224.97;6329476;27;20052;-74
2023/12/24 05:21:49;;;;;;;0.98;0.85;;;;;;;2.96;100.00;99228.31;6299034;28;20048;-74
2023/12/24 05:24:50;;;;;;;1.98;1.45;;;;;;;3.03;100.00;99228.00;6334054;27;20465;-74
2023/12/24 05:27:51;;;;;;;1.05;1.00;;;;;;;3.00;100.00;99225.53;6306125;28;20044;-74
2023/12/24 05:30:51;;;;;;;1.63;1.27;;;;;;;2.90;100.00;99223.41;6305829;28;20058;-74
2023/12/24 05:33:52;;;;;;;1.88;1.40;;;;;;;2.94;100.00;99232.69;6311109;28;20152;-74
2023/12/24 05:36:53;;;;;;;1.55;1.13;;;;;;;2.98;100.00;99245.38;6301272;28;20045;-73
2023/12/24 05:39:57;;;;;;;1.33;0.93;;;;;;;3.05;100.00;99253.69;6297624;28;20044;-74
2023/12/24 05:42:58;;;;;;;1.05;0.90;;;;;;;3.06;100.00;99255.38;6326926;27;20178;-74
2023/12/24 05:46:03;;;;;;;1.58;1.23;;;;;;;3.08;100.00;99247.56;6309160;28;20052;-72
2023/12/24 05:49:04;;;;;;;7.32;3.72;;;;;;;3.12;100.00;99251.69;6312640;28;20048;-74
2023/12/24 05:52:05;;;;;;;7.82;4.00;;;;;;;3.17;100.00;99257.47;6303568;28;20400;-73
2023/12/24 05:55:07;;;;;;;10.10;4.60;;;;;;;3.14;100.00;99258.44;6337127;27;20470;-73
2023/12/24 05:58:08;;;;;;;23.73;10.05;;;;;;;3.24;100.00;99271.78;6320182;28;20063;-78
2023/12/24 06:01:09;;;;;;;32.30;13.82;;;;;;;3.25;100.00;99270.03;6319620;28;20048;-74
2023/12/24 06:04:10;;;;;;;10.88;5.03;;;;;;;3.28;100.00;99262.19;6321145;28;20052;-73
2023/12/24 06:07:11;;;;;;;7.60;3.40;;;;;;;3.25;100.00;99262.31;6321444;28;20101;-74
2023/12/24 06:10:12;;;;;;;7.72;3.22;;;;;;;3.16;100.00;99261.78;6320387;28;20047;-78
2023/12/24 06:13:12;;;;;;;4.03;2.10;;;;;;;3.13;100.00;99259.38;6321377;28;20109;-74
2023/12/24 06:16:14;;;;;;;2.97;2.08;;;;;;;3.16;100.00;99261.78;6299935;28;20098;-78
2023/12/24 06:19:15;;;;;;;15.35;7.38;;;;;;;3.10;100.00;99258.66;6301266;28;20059;-74
2023/12/24 06:22:16;;;;;;;19.83;8.35;;;;;;;3.20;100.00;99265.91;6310674;28;20517;-74
2023/12/24 06:25:18;;;;;;;14.45;5.32;;;;;;;3.13;100.00;99268.81;6320694;28;20052;-75
2023/12/24 06:28:21;;;;;;;13.13;6.13;;;;;;;3.06;100.00;99277.72;6320144;28;20476;-75
2023/12/24 06:31:23;;;;;;;10.43;4.93;;;;;;;2.89;100.00;99286.19;6302604;28;20122;-76
2023/12/24 06:34:24;;;;;;;11.68;5.63;;;;;;;2.89;100.00;99291.34;6315917;28;20052;-76
2023/12/24 06:37:25;;;;;;;8.65;2.97;;;;;;;2.93;100.00;99285.97;6301697;28;20100;-75
2023/12/24 06:40:28;;;;;;;7.68;3.08;;;;;;;2.98;100.00;99285.78;6296801;28;20040;-75
2023/12/24 06:43:32;;;;;;;3.08;1.88;;;;;;;2.82;100.00;99288.16;6312026;28;20448;-75
2023/12/24 06:46:32;;;;;;;2.60;1.20;;;;;;;2.89;100.00;99294.75;6321380;28;20091;-74
2023/12/24 06:49:33;;;;;;;1.38;0.90;;;;;;;2.62;100.00;99291.56;6320384;28;20044;-74
2023/12/24 06:52:34;;;;;;;1.60;1.30;;;;;;;2.71;100.00;99298.06;6318384;28;20048;-75
2023/12/24 06:55:35;;;;;;;2.00;1.15;;;;;;;2.74;100.00;99305.66;6312408;28;20126;-74
2023/12/24 06:58:36;;;;;;;1.10;1.00;;;;;;;2.79;100.00;99303.75;6301772;28;20059;-73
2023/12/24 07:01:37;;;;;;;0.98;0.75;;;;;;;2.79;100.00;99304.56;6319066;28;20048;-75
2023/12/24 07:04:38;;;;;;;2.17;0.98;;;;;;;2.76;100.00;99303.84;6313726;28;20040;-74
2023/12/24 07:07:39;;;;;;;0.60;0.60;;;;;;;2.63;100.00;99304.34;6318650;28;20055;-74
2023/12/24 07:10:43;;;;;;;1.10;0.75;;;;;;;2.64;100.00;99315.53;6319771;28;20083;-74
2023/12/24 07:13:46;;;;;;;0.60;0.57;;;;;;;2.85;100.00;99312.97;6319667;28;20130;-75
2023/12/24 07:16:47;;;;;;;0.55;0.55;;;;;;;2.77;100.00;99315.84;6319731;28;20054;-74
2023/12/24 07:19:48;;;;;;;0.70;0.70;;;;;;;2.71;100.00;99314.34;6316473;28;20488;-75
2023/12/24 07:22:49;;;;;;;0.77;0.77;;;;;;;2.86;100.00;99318.03;6317470;28;20048;-75
2023/12/24 07:25:50;;;;;;;3.33;2.10;;;;;;;2.82;100.00;99321.66;6319465;28;20086;-76
2023/12/24 07:28:52;;;;;;;1.88;1.48;;;;;;;2.90;100.00;99323.91;6318151;28;20504;-75
2023/12/24 07:31:55;;;;;;;0.90;0.88;;;;;;;2.86;100.00;99324.94;6316327;28;20056;-75
2023/12/24 07:34:57;;;;;;;1.35;1.00;;;;;;;2.92;100.00;99329.84;6319268;28;20050;-76
2023/12/24 07:37:58;;;;;;;0.98;0.85;;;;;;;2.96;100.00;99321.09;6319632;28;20052;-77
2023/12/24 07:40:59;;;;;;;2.05;1.10;;;;;;;2.83;100.00;99321.59;6324163;28;20044;-77
2023/12/24 07:43:59;;;;;;;1.60;1.05;;;;;;;2.96;100.00;99321.91;6324407;28;20580;-78
2023/12/24 07:47:01;;;;;;;0.70;0.70;;;;;;;2.82;100.00;99321.66;6324730;28;20389;-78
2023/12/24 07:50:02;;;;;;;1.90;1.20;;;;;;;3.04;100.00;99321.59;6323957;28;20411;-78
2023/12/24 07:53:03;;;;;;;1.30;1.02;;;;;;;3.00;100.00;99336.34;6323090;28;20044;-78
2023/12/24 07:56:04;;;;;;;1.45;1.08;;;;;;;3.09;100.00;99324.84;6323172;28;20076;-78
2023/12/24 07:59:07;;;;;;;1.58;1.13;;;;;;;3.17;100.00;99324.50;6323697;28;20087;-79
2023/12/24 08:02:08;;;;;;;1.20;0.70;;;;;;;3.13;100.00;99328.09;6316384;28;20087;-78
2023/12/24 08:05:12;;;;;;;1.08;0.88;;;;;;;3.14;100.00;99338.38;6322693;28;20091;-78
2023/12/24 08:08:13;;;;;;;3.35;0.88;;;;;;;3.19;100.00;99339.03;6322756;28;20052;-75
2023/12/24 08:11:14;;;;;;;1.85;1.10;;;;;;;3.39;100.00;99333.00;6324102;28;20181;-76
2023/12/24 08:14:15;;;;;;;0.65;0.60;;;;;;;3.33;100.00;99325.53;6322670;28;20135;-78
2023/12/24 08:17:15;;;;;;;1.50;0.88;;;;;;;3.31;100.00;99321.34;6323661;28;20415;-75
2023/12/24 08:20:20;;;;;;;0.68;0.60;;;;;;;3.40;100.00;99315.81;6322407;28;20054;-75
2023/12/24 08:23:21;;;;;;;0.80;0.80;;;;;;;3.39;100.00;99321.84;6322499;28;20055;-78
2023/12/24 08:26:23;;;;;;;1.00;0.88;;;;;;;3.43;100.00;99323.41;6321535;28;20397;-78
2023/12/24 08:29:26;;;;;;;1.05;0.93;;;;;;;3.45;100.00;99324.16;6322344;28;20048;-79
2023/12/24 08:32:27;;;;;;;2.70;1.35;;;;;;;3.42;100.00;99322.56;6322240;28;20127;-78
2023/12/24 08:35:28;;;;;;;3.85;2.25;;;;;;;3.53;100.00;99336.75;6323132;28;20055;-75
2023/12/24 08:38:29;;;;;;;3.08;2.30;;;;;;;3.46;100.00;99341.34;6322291;28;20538;-78
2023/12/24 08:41:30;;;;;;;6.53;3.28;;;;;;;3.52;100.00;99351.38;6319764;28;20040;-78
2023/12/24 08:44:31;;;;;;;7.85;4.13;;;;;;;3.48;100.00;99355.00;6314112;28;20048;-74
2023/12/24 08:47:31;;;;;;;12.07;5.60;;;;;;;3.37;100.00;99354.59;6304896;28;20044;-74
2023/12/24 08:50:34;;;;;;;7.85;4.50;;;;;;;3.45;100.00;99377.50;6296823;28;20047;-74
2023/12/24 08:53:38;;;;;;;4.90;2.88;;;;;;;3.58;100.00;99364.00;6299104;28;20053;-74
2023/12/24 08:56:41;;;;;;;5.93;3.83;;;;;;;3.45;100.00;99352.53;6299349;28;20506;-74
2023/12/24 08:59:42;;;;;;;6.18;3.53;;;;;;;3.49;100.00;99359.25;6299648;28;20048;-74
2023/12/24 09:02:45;;;;;;;11.00;3.65;;;;;;;3.37;100.00;99367.50;6312150;28;20043;-74
2023/12/24 09:05:46;;;;;;;11.25;4.75;;;;;;;3.62;100.00;99360.41;6311898;28;20052;-75
2023/12/24 09:08:47;;;;;;;9.43;3.95;;;;;;;3.71;100.00;99348.00;6316575;28;20052;-75
2023/12/24 09:11:48;;;;;;;6.93;3.63;;;;;;;3.71;100.00;99343.66;6298106;28;20050;-75
2023/12/24 09:14:49;;;;;;;7.53;4.22;;;;;;;3.82;100.00;99351.75;6300737;28;20048;-74
2023/12/24 09:17:53;;;;;;;11.15;4.57;;;;;;;3.79;100.00;99338.19;6309733;28;20049;-74
2023/12/24 09:20:54;;;;;;;8.18;3.28;;;;;;;3.58;100.00;99334.78;6310061;28;20415;-73
2023/12/24 09:23:56;;;;;;;4.80;2.92;;;;;;;3.68;100.00;99330.06;6306308;28;20515;-73
2023/12/24 09:26:57;;;;;;;4.57;2.45;;;;;;;3.59;100.00;99332.13;6311453;28;20477;-74
2023/12/24 09:30:03;;;;;;;4.70;2.60;;;;;;;3.77;100.00;99327.09;6315633;28;20037;-74
2023/12/24 09:33:07;;;;;;;3.72;2.65;;;;;;;3.78;100.00;99314.09;6306492;28;20178;-74
2023/12/24 09:36:08;;;;;;;2.30;1.50;;;;;;;3.67;100.00;99324.06;6314633;28;20051;-74
2023/12/24 09:39:09;;;;;;;5.65;1.73;;;;;;;3.82;100.00;99331.13;6324150;28;20051;-77
2023/12/24 09:42:10;;;;;;;2.22;1.30;;;;;;;3.82;100.00;99322.53;6309257;28;20570;-74
2023/12/24 09:45:14;;;;;;;2.40;1.77;;;;;;;3.84;100.00;99315.56;6315758;28;20048;-78
2023/12/24 09:48:14;;;;;;;2.90;1.83;;;;;;;3.83;100.00;99308.75;6317454;28;20090;-73
2023/12/24 09:51:18;;;;;;;2.53;1.42;;;;;;;3.91;100.00;99324.72;6315235;28;20044;-73
2023/12/24 09:54:18;;;;;;;12.75;6.10;;;;;;;3.83;100.00;99330.22;6313240;28;20101;-77
2023/12/24 09:57:19;;;;;;;12.10;6.45;;;;;;;4.06;100.00;99319.75;6304463;28;20048;-77
2023/12/24 10:00:20;;;;;;;5.55;2.97;;;;;;;4.26;100.00;99322.25;6327293;28;20546;-74
2023/12/24 10:03:22;;;;;;;11.45;6.45;;;;;;;4.25;100.00;99315.41;6314912;28;20052;-74
2023/12/24 10:06:23;;;;;;;16.55;7.18;;;;;;;4.21;100.00;99312.13;6331173;28;20047;-73
2023/12/24 10:09:50;;;;;;;9.00;5.57;;;;;;;4.32;100.00;99306.47;6326893;28;20070;-73
2023/12/24 10:13:03;;;;;;;5.50;2.25;;;;;;;4.13;100.00;99300.50;6310894;28;20044;-73
2023/12/24 10:16:05;;;;;;;;;;;;;;;4.31;100.00;99303.97;6317407;28;20263;-74
2023/12/24 10:19:05;;;;;;;2.65;1.42;;;;;;;4.36;100.00;99299.41;6329061;28;19927;-72
2023/12/24 10:22:08;;;;;;;2.45;1.50;;;;;;;4.39;100.00;99289.78;6297544;28;20048;-74
2023/12/24 10:25:14;;;;;;;1.98;1.50;;;;;;;4.61;100.00;99296.47;6319718;28;20075;-74
2023/12/24 10:28:15;;;;;;;6.35;3.60;;;;;;;4.69;100.00;99294.34;6341839;28;20047;-75
2023/12/24 10:31:16;;;;;;;3.10;1.75;;;;;;;4.69;100.00;99283.19;6340295;28;20497;-73
2023/12/24 10:34:18;;;;;;;3.55;2.00;;;;;;;4.97;100.00;99278.31;6305917;28;20045;-76
2023/12/24 10:37:27;;;;;;;3.35;1.80;;;;;;;5.01;100.00;99266.91;6305690;28;20440;-76
2023/12/24 10:40:27;;;;;;;2.13;1.40;;;;;;;5.03;100.00;99274.59;6301854;28;20236;-77
2023/12/24 10:43:29;;;;;;;3.15;1.77;;;;;;;5.24;100.00;99270.91;6302295;28;20047;-76
2023/12/24 10:46:29;;;;;;;4.03;2.38;;;;;;;5.33;100.00;99269.59;6310842;28;20048;-76
2023/12/24 10:49:32;;;;;;;6.95;2.95;;;;;;;5.29;100.00;99262.06;6306435;28;20036;-76
2023/12/24 10:52:33;;;;;;;2.22;1.50;;;;;;;5.35;100.00;99256.59;6305598;28;20051;-76
2023/12/24 10:55:35;;;;;;;4.55;2.05;;;;;;;5.41;100.00;99262.25;6318837;28;20419;-76
2023/12/24 10:58:52;;;;;;;;;;;;;;;5.54;100.00;99235.75;6293990;28;20060;-76
2023/12/24 11:01:54;;;;;;;2.55;2.03;;;;;;;5.49;100.00;99227.41;6307197;28;19931;-76
2023/12/24 11:04:57;;;;;;;3.20;1.92;;;;;;;5.76;100.00;99235.44;6308339;28;20043;-73
2023/12/24 11:07:58;;;;;;;12.95;7.10;;;;;;;5.96;100.00;99235.22;6300905;28;20523;-73
2023/12/24 11:11:04;;;;;;;26.77;10.10;;;;;;;6.03;100.00;99235.72;6300780;28;20098;-73
2023/12/24 11:14:05;;;;;;;18.48;9.35;;;;;;;6.10;100.00;99231.88;6309187;28;20044;-73
2023/12/24 11:17:08;;;;;;;13.25;7.45;;;;;;;6.34;100.00;99232.25;6310658;28;20055;-74
2023/12/24 11:20:19;;;;;;;9.95;5.47;;;;;;;6.45;100.00;99224.69;6330258;28;20056;-74
2023/12/24 11:23:20;;;;;;;6.72;3.55;;;;;;;6.65;100.00;99220.97;6319219;28;20082;-74
2023/12/24 11:26:32;;;;;;;3.95;2.90;;;;;;;6.93;100.00;99213.31;6340707;28;20415;-74
2023/12/24 11:29:46;;;;;;;2.55;2.13;;;;;;;7.00;100.00;99210.28;6328600;28;20127;-74
2023/12/24 11:32:47;;;;;;;4.03;2.40;;;;;;;7.05;100.00;99212.59;6318291;28;20052;-77
2023/12/24 11:35:52;;;;;;;3.97;2.58;;;;;;;7.06;100.00;99215.09;6320459;28;20075;-74
2023/12/24 11:38:56;;;;;;;4.03;2.08;;;;;;;6.98;100.00;99217.31;6313026;28;20140;-74
2023/12/24 11:41:56;;;;;;;3.85;2.30;;;;;;;7.06;100.00;99222.88;6311482;28;20185;-74
2023/12/24 11:44:58;;;;;;;5.45;3.60;;;;;;;6.99;100.00;99207.78;6336570;28;20131;-77
2023/12/24 11:48:01;;;;;;;6.43;4.15;;;;;;;7.04;100.00;99210.91;6340025;28;20073;-78
2023/12/24 11:51:07;;;;;;;4.18;2.88;;;;;;;6.92;100.00;99196.94;6344461;28;20586;-77
2023/12/24 11:54:08;;;;;;;5.88;2.25;;;;;;;6.96;100.00;99193.22;6307774;28;20135;-77
2023/12/24 11:57:23;;;;;;;7.93;2.28;;;;;;;6.94;100.00;99197.69;6325721;28;20063;-77
2023/12/24 12:00:27;;;;;;;4.38;2.72;;;;;;;7.09;100.00;99195.09;6301116;28;20079;-77
2023/12/24 12:03:30;;;;;;;2.10;1.85;;;;;;;6.97;100.00;99204.44;6325701;28;20055;-77
2023/12/24 12:06:31;;;;;;;;;;;;;;;7.15;100.00;99199.91;6325346;28;20051;-77
2023/12/24 12:09:32;;;;;;;3.42;2.42;;;;;;;7.20;100.00;99197.84;6331720;28;20303;-77
2023/12/24 12:12:36;;;;;;;3.50;2.33;;;;;;;7.11;100.00;99208.81;6344094;28;20048;-77
2023/12/24 12:15:37;;;;;;;3.60;2.47;;;;;;;7.23;100.00;99202.88;6329246;28;20079;-78
2023/12/24 12:18:40;;;;;;;3.40;2.25;;;;;;;7.15;100.00;99199.91;6317584;28;20044;-77
2023/12/24 12:21:43;;;;;;;4.13;2.63;;;;;;;7.23;100.00;99205.47;6320289;28;20135;-77
2023/12/24 12:24:44;;;;;;;3.63;2.22;;;;;;;7.33;100.00;99203.13;6344202;28;20565;-77
2023/12/24 12:27:47;;;;;;;4.78;2.30;;;;;;;7.52;100.00;99202.84;6314427;28;20044;-73
2023/12/24 12:30:48;;;;;;;4.32;2.55;;;;;;;7.65;100.00;99198.56;6302368;28;20465;-73
2023/12/24 12:33:49;;;;;;;5.30;2.33;;;;;;;7.67;100.00;99207.91;6302900;28;20044;-73
2023/12/24 12:36:51;;;;;;;4.55;3.00;;;;;;;7.34;100.00;99204.81;6296925;28;20520;-73
2023/12/24 12:39:51;;;;;;;7.22;3.28;;;;;;;7.19;100.00;99214.38;6304098;28;20409;-73
2023/12/24 12:42:52;;;;;;;5.35;2.25;;;;;;;6.90;100.00;99221.28;6342785;28;20130;-73
2023/12/24 12:45:55;;;;;;;4.35;2.70;;;;;;;7.11;100.00;99222.59;6329119;27;20073;-73
2023/12/24 12:48:56;;;;;;;5.93;2.95;;;;;;;6.94;100.00;99218.44;6340120;28;20076;-73
2023/12/24 12:51:57;;;;;;;6.88;3.38;;;;;;;7.14;100.00;99218.97;6320796;28;20545;-73
2023/12/24 12:55:03;;;;;;;5.82;2.53;;;;;;;7.10;100.00;99225.28;6323110;28;20131;-73
2023/12/24 12:58:12;;;;;;;3.50;2.22;;;;;;;7.05;100.00;99233.34;6319160;28;20415;-74
2023/12/24 13:01:13;;;;;;;4.88;2.53;;;;;;;7.10;100.00;99239.06;6321004;28;20036;-73
2023/12/24 13:04:34;;;;;;;6.03;2.47;;;;;;;7.24;100.00;99228.72;6320040;28;20048;-75
2023/12/24 13:07:35;;;;;;;12.32;5.00;;;;;;;7.32;100.00;99223.06;6321248;28;20544;-74
2023/12/24 13:10:37;;;;;;;3.70;2.47;;;;;;;7.24;100.00;99233.91;6320968;28;20389;-73
2023/12/24 13:13:38;;;;;;;2.28;1.85;;;;;;;7.13;100.00;99209.53;6321900;28;20044;-74
2023/12/24 13:16:41;;;;;;;1.98;1.58;;;;;;;7.20;100.00;99206.47;6320682;28;20040;-73
2023/12/24 13:19:42;;;;;;;1.92;1.55;;;;;;;7.25;100.00;99212.22;6319382;28;20052;-73
2023/12/24 13:22:43;;;;;;;3.00;1.77;;;;;;;7.24;100.00;99213.13;6303413;28;20070;-72
2023/12/24 13:25:45;;;;;;;2.30;1.83;;;;;;;7.28;100.00;99210.38;6321629;28;20052;-73
2023/12/24 13:28:46;;;;;;;4.87;2.47;;;;;;;7.27;100.00;99212.16;6319598;28;20047;-73
2023/12/24 13:31:47;;;;;;;3.00;1.92;;;;;;;7.31;100.00;99212.78;6317785;28;20063;-73
2023/12/24 13:34:48;;;;;;;4.73;2.43;;;;;;;7.44;100.00;99205.91;6320091;28;20052;-74
2023/12/24 13:37:49;;;;;;;3.10;1.98;;;;;;;7.37;100.00;99215.00;6319284;28;20464;-73
2023/12/24 13:40:51;;;;;;;3.03;1.67;;;;;;;7.34;100.00;99215.19;6320792;28;20048;-73
2023/12/24 13:43:54;;;;;;;;;;;;;;;7.30;100.00;99204.16;6317245;28;20052;-73
2023/12/24 13:46:57;;;;;;;3.45;2.00;;;;;;;7.39;100.00;99208.81;6317673;28;19924;-74
2023/12/24 13:49:58;;;;;;;5.93;2.40;;;;;;;7.33;100.00;99200.53;6318147;28;20032;-73
2023/12/24 13:53:00;;;;;;;4.38;1.75;;;;;;;7.36;100.00;99214.16;6318275;28;20042;-73
2023/12/24 13:56:03;;;;;;;4.27;2.83;;;;;;;7.46;100.00;99215.25;6319585;28;20048;-74
2023/12/24 13:59:07;;;;;;;8.60;4.13;;;;;;;7.51;100.00;99219.34;6319303;28;20389;-74
2023/12/24 14:02:09;;;;;;;8.73;4.20;;;;;;;7.56;100.00;99218.13;6318692;28;20044;-74
2023/12/24 14:05:10;;;;;;;14.97;6.20;;;;;;;7.51;100.00;99212.38;6330291;28;20058;-74
2023/12/24 14:08:14;;;;;;;17.10;7.20;;;;;;;7.58;100.00;99212.84;6331320;28;20133;-78
2023/12/24 14:11:15;;;;;;;38.50;15.13;;;;;;;7.64;100.00;99212.47;6332298;28;20039;-78
2023/12/24 14:14:16;;;;;;;26.25;8.70;;;;;;;7.42;100.00;99213.78;6329641;28;20408;-78
2023/12/24 14:17:18;;;;;;;16.23;6.72;;;;;;;7.43;100.00;99220.66;6319983;28;20067;-78